sensor_id;sensor_type;location;lat;lon;timestamp;temperature;humidity
20839;DHT22;10580;51.092;6.828;2023-04-15T00:01:22;6.70;1.00
20839;DHT22;10580;51.092;6.828;2023-04-15T00:03:50;6.60;1.00
20839;DHT22;10580;51.092;6.828;2023-04-15T00:06:20;6.60;1.00
20839;DHT22;10580;51.092;6.828;2023-04-15T00:08:46;6.60;99.90
20839;DHT22;10580;51.092;6.828;2023-04-15T00:11:12;6.60;99.90
20839;DHT22;10580;51.092;6.828;2023-04-15T00:13:38;6.40;99.90
20839;DHT22;10580;51.092;6.828;2023-04-15T00:16:05;6.40;1.00
20839;DHT22;10580;51.092;6.828;2023-04-15T00:18:31;6.40;1.00
20839;DHT22;10580;51.092;6.828;2023-04-15T00:20:57;6.40;1.00
20839;DHT22;10580;51.092;6.828;2023-04-15T00:23:23;6.30;1.00
20839;DHT22;10580;51.092;6.828;2023-04-15T00:25:49;6.30;51.90
20839;DHT22;10580;51.092;6.828;2023-04-15T00:28:15;6.30;99.90
20839;DHT22;10580;51.092;6.828;2023-04-15T00:30:42;6.20;1.00
20839;DHT22;10580;51.092;6.828;2023-04-15T00:33:07;6.20;23.30
20839;DHT22;10580;51.092;6.828;2023-04-15T00:35:33;6.20;99.90
20839;DHT22;10580;51.092;6.828;2023-04-15T00:37:59;6.20;99.90
20839;DHT22;10580;51.092;6.828;2023-04-15T00:40:25;6.00;1.00
20839;DHT22;10580;51.092;6.828;2023-04-15T00:42:51;6.00;1.00
20839;DHT22;10580;51.092;6.828;2023-04-15T00:45:17;6.00;99.90
20839;DHT22;10580;51.092;6.828;2023-04-15T00:47:43;6.00;99.90
20839;DHT22;10580;51.092;6.828;2023-04-15T00:50:11;5.90;99.90
20839;DHT22;10580;51.092;6.828;2023-04-15T00:52:38;5.90;23.10
20839;DHT22;10580;51.092;6.828;2023-04-15T00:55:04;5.90;1.00
20839;DHT22;10580;51.092;6.828;2023-04-15T00:57:30;5.90;18.60
20839;DHT22;10580;51.092;6.828;2023-04-15T00:59:57;5.90;99.90
20839;DHT22;10580;51.092;6.828;2023-04-15T01:02:23;5.80;1.00
20839;DHT22;10580;51.092;6.828;2023-04-15T01:04:49;5.80;1.00
20839;DHT22;10580;51.092;6.828;2023-04-15T01:07:15;5.80;1.00
20839;DHT22;10580;51.092;6.828;2023-04-15T01:09:41;5.80;1.00
20839;DHT22;10580;51.092;6.828;2023-04-15T01:12:07;5.80;1.00
20839;DHT22;10580;51.092;6.828;2023-04-15T01:14:34;5.70;1.00
20839;DHT22;10580;51.092;6.828;2023-04-15T01:17:00;5.70;1.00
20839;DHT22;10580;51.092;6.828;2023-04-15T01:19:26;5.70;1.00
20839;DHT22;10580;51.092;6.828;2023-04-15T01:21:53;5.70;99.90
20839;DHT22;10580;51.092;6.828;2023-04-15T01:24:18;5.60;1.00
20839;DHT22;10580;51.092;6.828;2023-04-15T01:26:45;5.60;1.00
20839;DHT22;10580;51.092;6.828;2023-04-15T01:29:11;5.60;99.90
20839;DHT22;10580;51.092;6.828;2023-04-15T01:31:37;5.60;99.90
20839;DHT22;10580;51.092;6.828;2023-04-15T01:34:03;5.60;1.00
20839;DHT22;10580;51.092;6.828;2023-04-15T01:36:29;5.60;99.90
20839;DHT22;10580;51.092;6.828;2023-04-15T01:38:55;5.60;1.00
20839;DHT22;10580;51.092;6.828;2023-04-15T01:41:30;5.60;1.00
20839;DHT22;10580;51.092;6.828;2023-04-15T01:43:56;5.50;1.00
20839;DHT22;10580;51.092;6.828;2023-04-15T01:46:21;5.50;99.90
20839;DHT22;10580;51.092;6.828;2023-04-15T01:48:47;5.40;1.00
20839;DHT22;10580;51.092;6.828;2023-04-15T01:51:12;5.40;99.90
20839;DHT22;10580;51.092;6.828;2023-04-15T01:53:38;5.40;1.00
20839;DHT22;10580;51.092;6.828;2023-04-15T01:56:04;5.50;1.00
20839;DHT22;10580;51.092;6.828;2023-04-15T01:58:29;5.50;99.90
20839;DHT22;10580;51.092;6.828;2023-04-15T02:00:55;5.40;1.00
20839;DHT22;10580;51.092;6.828;2023-04-15T02:03:21;5.40;1.00
20839;DHT22;10580;51.092;6.828;2023-04-15T02:05:47;5.40;1.00
20839;DHT22;10580;51.092;6.828;2023-04-15T02:08:13;5.40;1.00
20839;DHT22;10580;51.092;6.828;2023-04-15T02:10:38;5.30;1.00
20839;DHT22;10580;51.092;6.828;2023-04-15T02:13:04;5.30;1.00
20839;DHT22;10580;51.092;6.828;2023-04-15T02:15:30;5.30;1.00
20839;DHT22;10580;51.092;6.828;2023-04-15T02:17:55;5.20;1.00
20839;DHT22;10580;51.092;6.828;2023-04-15T02:20:22;5.20;82.40
20839;DHT22;10580;51.092;6.828;2023-04-15T02:22:48;5.30;61.00
20839;DHT22;10580;51.092;6.828;2023-04-15T02:25:14;5.30;4.40
20839;DHT22;10580;51.092;6.828;2023-04-15T02:27:41;5.30;1.00
20839;DHT22;10580;51.092;6.828;2023-04-15T02:30:08;5.20;1.00
20839;DHT22;10580;51.092;6.828;2023-04-15T02:32:34;5.20;25.10
20839;DHT22;10580;51.092;6.828;2023-04-15T02:35:07;5.20;16.30
20839;DHT22;10580;51.092;6.828;2023-04-15T02:37:35;5.20;99.90
20839;DHT22;10580;51.092;6.828;2023-04-15T02:40:08;5.20;99.90
20839;DHT22;10580;51.092;6.828;2023-04-15T02:42:37;5.20;99.90
20839;DHT22;10580;51.092;6.828;2023-04-15T02:45:03;5.10;99.90
20839;DHT22;10580;51.092;6.828;2023-04-15T02:47:29;5.10;99.90
20839;DHT22;10580;51.092;6.828;2023-04-15T02:49:54;5.10;99.90
20839;DHT22;10580;51.092;6.828;2023-04-15T02:52:20;5.20;99.90
20839;DHT22;10580;51.092;6.828;2023-04-15T02:54:45;5.20;99.90
20839;DHT22;10580;51.092;6.828;2023-04-15T02:57:11;5.10;99.90
20839;DHT22;10580;51.092;6.828;2023-04-15T02:59:37;5.20;99.90
20839;DHT22;10580;51.092;6.828;2023-04-15T03:02:03;5.20;99.90
20839;DHT22;10580;51.092;6.828;2023-04-15T03:04:31;5.20;99.90
20839;DHT22;10580;51.092;6.828;2023-04-15T03:06:57;5.10;99.90
20839;DHT22;10580;51.092;6.828;2023-04-15T03:09:23;5.10;99.90
20839;DHT22;10580;51.092;6.828;2023-04-15T03:11:48;5.00;99.90
20839;DHT22;10580;51.092;6.828;2023-04-15T03:14:14;5.00;99.90
20839;DHT22;10580;51.092;6.828;2023-04-15T03:16:40;5.00;99.90
20839;DHT22;10580;51.092;6.828;2023-04-15T03:19:05;4.90;99.90
20839;DHT22;10580;51.092;6.828;2023-04-15T03:21:31;4.90;99.90
20839;DHT22;10580;51.092;6.828;2023-04-15T03:23:57;4.80;99.90
20839;DHT22;10580;51.092;6.828;2023-04-15T03:26:28;4.80;99.90
20839;DHT22;10580;51.092;6.828;2023-04-15T03:28:54;4.80;1.00
20839;DHT22;10580;51.092;6.828;2023-04-15T03:31:20;4.80;1.00
20839;DHT22;10580;51.092;6.828;2023-04-15T03:33:45;4.80;1.00
20839;DHT22;10580;51.092;6.828;2023-04-15T03:36:11;4.80;1.00
20839;DHT22;10580;51.092;6.828;2023-04-15T03:38:37;4.80;1.00
20839;DHT22;10580;51.092;6.828;2023-04-15T03:41:02;4.70;1.00
20839;DHT22;10580;51.092;6.828;2023-04-15T03:43:28;4.70;1.00
20839;DHT22;10580;51.092;6.828;2023-04-15T03:45:53;4.70;1.00
20839;DHT22;10580;51.092;6.828;2023-04-15T03:48:19;4.70;1.00
20839;DHT22;10580;51.092;6.828;2023-04-15T03:50:44;4.60;1.00
20839;DHT22;10580;51.092;6.828;2023-04-15T03:53:10;4.60;1.00
20839;DHT22;10580;51.092;6.828;2023-04-15T03:55:36;4.60;1.00
20839;DHT22;10580;51.092;6.828;2023-04-15T03:58:02;4.60;1.00
20839;DHT22;10580;51.092;6.828;2023-04-15T04:00:27;4.60;1.00
20839;DHT22;10580;51.092;6.828;2023-04-15T04:02:53;4.60;1.00
20839;DHT22;10580;51.092;6.828;2023-04-15T04:05:18;4.50;1.00
20839;DHT22;10580;51.092;6.828;2023-04-15T04:07:44;4.50;1.00
20839;DHT22;10580;51.092;6.828;2023-04-15T04:10:10;4.50;1.00
20839;DHT22;10580;51.092;6.828;2023-04-15T04:12:35;4.50;1.00
20839;DHT22;10580;51.092;6.828;2023-04-15T04:15:01;4.50;1.00
20839;DHT22;10580;51.092;6.828;2023-04-15T04:17:26;4.40;1.00
20839;DHT22;10580;51.092;6.828;2023-04-15T04:19:52;4.40;1.00
20839;DHT22;10580;51.092;6.828;2023-04-15T04:22:21;4.40;1.00
20839;DHT22;10580;51.092;6.828;2023-04-15T04:24:48;4.50;1.00
20839;DHT22;10580;51.092;6.828;2023-04-15T04:27:13;4.50;1.00
20839;DHT22;10580;51.092;6.828;2023-04-15T04:29:39;4.50;1.00
20839;DHT22;10580;51.092;6.828;2023-04-15T04:32:05;4.40;1.00
20839;DHT22;10580;51.092;6.828;2023-04-15T04:34:31;4.30;1.00
20839;DHT22;10580;51.092;6.828;2023-04-15T04:36:57;4.40;1.00
20839;DHT22;10580;51.092;6.828;2023-04-15T04:39:22;4.30;1.00
20839;DHT22;10580;51.092;6.828;2023-04-15T04:41:48;4.40;1.00
20839;DHT22;10580;51.092;6.828;2023-04-15T04:44:14;4.40;1.00
20839;DHT22;10580;51.092;6.828;2023-04-15T04:46:40;4.30;1.00
20839;DHT22;10580;51.092;6.828;2023-04-15T04:49:06;4.30;1.00
20839;DHT22;10580;51.092;6.828;2023-04-15T04:51:31;4.30;1.00
20839;DHT22;10580;51.092;6.828;2023-04-15T04:53:57;4.40;1.00
20839;DHT22;10580;51.092;6.828;2023-04-15T04:56:23;4.40;1.00
20839;DHT22;10580;51.092;6.828;2023-04-15T04:58:48;4.40;1.00
20839;DHT22;10580;51.092;6.828;2023-04-15T05:01:14;4.50;1.00
20839;DHT22;10580;51.092;6.828;2023-04-15T05:03:40;4.60;1.00
20839;DHT22;10580;51.092;6.828;2023-04-15T05:06:06;4.60;1.00
20839;DHT22;10580;51.092;6.828;2023-04-15T05:08:33;4.70;1.00
20839;DHT22;10580;51.092;6.828;2023-04-15T05:10:58;4.70;1.00
20839;DHT22;10580;51.092;6.828;2023-04-15T05:13:24;4.70;1.00
20839;DHT22;10580;51.092;6.828;2023-04-15T05:15:50;4.70;1.00
20839;DHT22;10580;51.092;6.828;2023-04-15T05:18:15;4.80;1.00
20839;DHT22;10580;51.092;6.828;2023-04-15T05:20:41;4.80;1.00
20839;DHT22;10580;51.092;6.828;2023-04-15T05:23:07;4.90;1.00
20839;DHT22;10580;51.092;6.828;2023-04-15T05:25:32;5.00;1.00
20839;DHT22;10580;51.092;6.828;2023-04-15T05:27:58;5.10;1.00
20839;DHT22;10580;51.092;6.828;2023-04-15T05:30:23;5.10;1.00
20839;DHT22;10580;51.092;6.828;2023-04-15T05:32:49;5.30;1.00
20839;DHT22;10580;51.092;6.828;2023-04-15T05:35:14;5.50;1.00
20839;DHT22;10580;51.092;6.828;2023-04-15T05:37:40;5.70;1.00
20839;DHT22;10580;51.092;6.828;2023-04-15T05:40:06;6.10;1.00
20839;DHT22;10580;51.092;6.828;2023-04-15T05:42:34;6.70;1.00
20839;DHT22;10580;51.092;6.828;2023-04-15T05:44:59;7.10;1.00
20839;DHT22;10580;51.092;6.828;2023-04-15T05:47:25;7.60;1.00
20839;DHT22;10580;51.092;6.828;2023-04-15T05:49:51;8.10;99.90
20839;DHT22;10580;51.092;6.828;2023-04-15T05:52:17;8.90;1.00
20839;DHT22;10580;51.092;6.828;2023-04-15T05:54:43;9.60;1.00
20839;DHT22;10580;51.092;6.828;2023-04-15T05:57:08;10.50;1.00
20839;DHT22;10580;51.092;6.828;2023-04-15T05:59:34;11.50;1.00
20839;DHT22;10580;51.092;6.828;2023-04-15T06:01:59;12.10;99.90
20839;DHT22;10580;51.092;6.828;2023-04-15T06:04:25;11.90;1.00
20839;DHT22;10580;51.092;6.828;2023-04-15T06:06:51;11.90;27.50
20839;DHT22;10580;51.092;6.828;2023-04-15T06:09:16;12.00;1.00
20839;DHT22;10580;51.092;6.828;2023-04-15T06:11:42;11.90;1.00
20839;DHT22;10580;51.092;6.828;2023-04-15T06:14:07;11.70;1.00
20839;DHT22;10580;51.092;6.828;2023-04-15T06:16:33;11.30;1.00
20839;DHT22;10580;51.092;6.828;2023-04-15T06:18:59;11.10;1.00
20839;DHT22;10580;51.092;6.828;2023-04-15T06:21:25;11.00;1.00
20839;DHT22;10580;51.092;6.828;2023-04-15T06:23:51;10.80;1.00
20839;DHT22;10580;51.092;6.828;2023-04-15T06:26:17;10.60;1.00
20839;DHT22;10580;51.092;6.828;2023-04-15T06:28:42;10.50;1.00
20839;DHT22;10580;51.092;6.828;2023-04-15T06:31:08;10.30;1.00
20839;DHT22;10580;51.092;6.828;2023-04-15T06:33:33;10.30;1.00
20839;DHT22;10580;51.092;6.828;2023-04-15T06:35:59;10.40;1.00
20839;DHT22;10580;51.092;6.828;2023-04-15T06:38:25;10.40;1.00
20839;DHT22;10580;51.092;6.828;2023-04-15T06:40:50;10.50;1.00
20839;DHT22;10580;51.092;6.828;2023-04-15T06:43:16;10.50;1.00
20839;DHT22;10580;51.092;6.828;2023-04-15T06:45:42;10.60;1.00
20839;DHT22;10580;51.092;6.828;2023-04-15T06:48:07;11.00;1.00
20839;DHT22;10580;51.092;6.828;2023-04-15T06:50:33;11.40;1.00
20839;DHT22;10580;51.092;6.828;2023-04-15T06:52:59;11.70;1.00
20839;DHT22;10580;51.092;6.828;2023-04-15T06:55:25;12.00;1.00
20839;DHT22;10580;51.092;6.828;2023-04-15T06:57:51;12.10;1.00
20839;DHT22;10580;51.092;6.828;2023-04-15T07:00:17;12.50;1.00
20839;DHT22;10580;51.092;6.828;2023-04-15T07:02:43;13.70;1.00
20839;DHT22;10580;51.092;6.828;2023-04-15T07:05:09;14.90;1.00
20839;DHT22;10580;51.092;6.828;2023-04-15T07:07:34;15.50;1.00
20839;DHT22;10580;51.092;6.828;2023-04-15T07:10:01;15.70;99.90
20839;DHT22;10580;51.092;6.828;2023-04-15T07:12:27;15.60;99.90
20839;DHT22;10580;51.092;6.828;2023-04-15T07:14:53;15.80;99.90
20839;DHT22;10580;51.092;6.828;2023-04-15T07:17:18;15.70;99.90
20839;DHT22;10580;51.092;6.828;2023-04-15T07:19:44;15.60;65.00
20839;DHT22;10580;51.092;6.828;2023-04-15T07:22:09;15.80;48.90
20839;DHT22;10580;51.092;6.828;2023-04-15T07:24:35;16.00;1.00
20839;DHT22;10580;51.092;6.828;2023-04-15T07:27:00;16.20;1.00
20839;DHT22;10580;51.092;6.828;2023-04-15T07:32:34;16.80;1.00
20839;DHT22;10580;51.092;6.828;2023-04-15T07:35:00;17.40;1.00
20839;DHT22;10580;51.092;6.828;2023-04-15T07:37:26;17.50;1.00
20839;DHT22;10580;51.092;6.828;2023-04-15T07:39:52;17.20;1.00
20839;DHT22;10580;51.092;6.828;2023-04-15T07:42:18;16.70;1.00
20839;DHT22;10580;51.092;6.828;2023-04-15T07:44:44;16.10;1.00
20839;DHT22;10580;51.092;6.828;2023-04-15T07:47:09;16.00;1.00
20839;DHT22;10580;51.092;6.828;2023-04-15T07:49:36;15.90;1.00
20839;DHT22;10580;51.092;6.828;2023-04-15T07:52:01;16.00;1.00
20839;DHT22;10580;51.092;6.828;2023-04-15T07:54:27;16.10;1.00
20839;DHT22;10580;51.092;6.828;2023-04-15T08:11:45;14.70;1.00
20839;DHT22;10580;51.092;6.828;2023-04-15T08:41:20;17.20;1.00
20839;DHT22;10580;51.092;6.828;2023-04-15T08:44:45;16.40;1.00
20839;DHT22;10580;51.092;6.828;2023-04-15T08:47:41;15.70;1.00
20839;DHT22;10580;51.092;6.828;2023-04-15T08:50:32;15.50;1.00
20839;DHT22;10580;51.092;6.828;2023-04-15T08:52:59;15.50;1.00
20839;DHT22;10580;51.092;6.828;2023-04-15T08:55:53;15.60;1.00
20839;DHT22;10580;51.092;6.828;2023-04-15T09:09:40;15.60;1.00
20839;DHT22;10580;51.092;6.828;2023-04-15T09:16:25;14.40;1.00
20839;DHT22;10580;51.092;6.828;2023-04-15T09:19:21;14.30;1.00
20839;DHT22;10580;51.092;6.828;2023-04-15T09:21:47;14.70;1.00
20839;DHT22;10580;51.092;6.828;2023-04-15T09:24:13;14.70;1.00
20839;DHT22;10580;51.092;6.828;2023-04-15T09:26:38;15.10;1.00
20839;DHT22;10580;51.092;6.828;2023-04-15T09:29:09;15.50;1.00
20839;DHT22;10580;51.092;6.828;2023-04-15T09:31:37;15.70;1.00
20839;DHT22;10580;51.092;6.828;2023-04-15T09:34:03;16.00;1.00
20839;DHT22;10580;51.092;6.828;2023-04-15T09:39:10;15.40;1.00
20839;DHT22;10580;51.092;6.828;2023-04-15T09:41:36;15.10;1.00
20839;DHT22;10580;51.092;6.828;2023-04-15T09:44:02;14.80;1.00
20839;DHT22;10580;51.092;6.828;2023-04-15T09:46:44;14.60;1.00
20839;DHT22;10580;51.092;6.828;2023-04-15T09:49:11;14.50;1.00
20839;DHT22;10580;51.092;6.828;2023-04-15T09:51:37;14.30;1.00
20839;DHT22;10580;51.092;6.828;2023-04-15T09:54:03;14.30;1.00
20839;DHT22;10580;51.092;6.828;2023-04-15T09:56:38;14.10;1.00
20839;DHT22;10580;51.092;6.828;2023-04-15T09:59:07;14.00;1.00
20839;DHT22;10580;51.092;6.828;2023-04-15T10:01:33;14.20;1.00
20839;DHT22;10580;51.092;6.828;2023-04-15T10:04:02;14.70;1.00
20839;DHT22;10580;51.092;6.828;2023-04-15T10:06:29;15.10;1.00
20839;DHT22;10580;51.092;6.828;2023-04-15T10:08:58;15.50;1.00
20839;DHT22;10580;51.092;6.828;2023-04-15T10:11:28;15.60;1.00
20839;DHT22;10580;51.092;6.828;2023-04-15T10:13:54;15.80;1.00
20839;DHT22;10580;51.092;6.828;2023-04-15T10:16:20;15.60;1.00
20839;DHT22;10580;51.092;6.828;2023-04-15T10:18:53;15.40;1.00
20839;DHT22;10580;51.092;6.828;2023-04-15T10:21:20;15.50;1.00
20839;DHT22;10580;51.092;6.828;2023-04-15T10:23:48;15.30;1.00
20839;DHT22;10580;51.092;6.828;2023-04-15T10:26:15;15.00;1.00
20839;DHT22;10580;51.092;6.828;2023-04-15T10:28:44;15.30;1.00
20839;DHT22;10580;51.092;6.828;2023-04-15T10:31:13;15.40;1.00
20839;DHT22;10580;51.092;6.828;2023-04-15T10:33:42;15.40;1.00
20839;DHT22;10580;51.092;6.828;2023-04-15T10:36:09;15.90;1.00
20839;DHT22;10580;51.092;6.828;2023-04-15T10:41:24;16.20;1.00
20839;DHT22;10580;51.092;6.828;2023-04-15T10:46:39;16.10;1.00
20839;DHT22;10580;51.092;6.828;2023-04-15T10:49:16;15.60;1.00
20839;DHT22;10580;51.092;6.828;2023-04-15T10:51:43;15.60;1.00
20839;DHT22;10580;51.092;6.828;2023-04-15T10:59:31;15.40;1.00
20839;DHT22;10580;51.092;6.828;2023-04-15T11:02:06;15.20;1.00
20839;DHT22;10580;51.092;6.828;2023-04-15T11:04:59;15.20;1.00
20839;DHT22;10580;51.092;6.828;2023-04-15T11:12:49;14.70;1.00
20839;DHT22;10580;51.092;6.828;2023-04-15T11:17:55;14.50;1.00
20839;DHT22;10580;51.092;6.828;2023-04-15T11:20:21;14.50;1.00
20839;DHT22;10580;51.092;6.828;2023-04-15T11:22:51;14.40;1.00
20839;DHT22;10580;51.092;6.828;2023-04-15T11:25:22;14.20;1.00
20839;DHT22;10580;51.092;6.828;2023-04-15T11:27:47;14.10;1.00
20839;DHT22;10580;51.092;6.828;2023-04-15T11:30:22;14.00;1.00
20839;DHT22;10580;51.092;6.828;2023-04-15T11:32:52;14.00;1.00
20839;DHT22;10580;51.092;6.828;2023-04-15T11:35:18;13.90;1.00
20839;DHT22;10580;51.092;6.828;2023-04-15T11:37:45;14.00;1.00
20839;DHT22;10580;51.092;6.828;2023-04-15T11:40:11;13.90;1.00
20839;DHT22;10580;51.092;6.828;2023-04-15T11:42:37;14.20;1.00
20839;DHT22;10580;51.092;6.828;2023-04-15T11:45:08;14.10;1.00
20839;DHT22;10580;51.092;6.828;2023-04-15T11:47:35;13.90;1.00
20839;DHT22;10580;51.092;6.828;2023-04-15T11:50:18;13.70;1.00
20839;DHT22;10580;51.092;6.828;2023-04-15T11:52:57;13.50;1.00
20839;DHT22;10580;51.092;6.828;2023-04-15T11:55:24;13.50;1.00
20839;DHT22;10580;51.092;6.828;2023-04-15T12:00:55;13.40;1.00
20839;DHT22;10580;51.092;6.828;2023-04-15T12:03:28;13.30;1.00
20839;DHT22;10580;51.092;6.828;2023-04-15T12:06:17;13.40;1.00
20839;DHT22;10580;51.092;6.828;2023-04-15T12:08:52;13.40;1.00
20839;DHT22;10580;51.092;6.828;2023-04-15T12:14:06;13.00;1.00
20839;DHT22;10580;51.092;6.828;2023-04-15T12:16:41;13.00;1.00
20839;DHT22;10580;51.092;6.828;2023-04-15T12:19:10;13.40;1.00
20839;DHT22;10580;51.092;6.828;2023-04-15T12:21:38;13.10;1.00
20839;DHT22;10580;51.092;6.828;2023-04-15T12:24:08;13.40;1.00
20839;DHT22;10580;51.092;6.828;2023-04-15T12:26:46;12.70;1.00
20839;DHT22;10580;51.092;6.828;2023-04-15T12:29:13;12.50;1.00
20839;DHT22;10580;51.092;6.828;2023-04-15T12:31:54;12.50;1.00
20839;DHT22;10580;51.092;6.828;2023-04-15T12:34:32;12.50;1.00
20839;DHT22;10580;51.092;6.828;2023-04-15T12:36:59;12.40;1.00
20839;DHT22;10580;51.092;6.828;2023-04-15T12:39:27;12.30;1.00
20839;DHT22;10580;51.092;6.828;2023-04-15T12:41:53;12.10;1.00
20839;DHT22;10580;51.092;6.828;2023-04-15T12:44:21;12.00;1.00
20839;DHT22;10580;51.092;6.828;2023-04-15T12:46:48;12.00;1.00
20839;DHT22;10580;51.092;6.828;2023-04-15T12:49:14;12.00;1.00
20839;DHT22;10580;51.092;6.828;2023-04-15T12:51:41;12.10;1.00
20839;DHT22;10580;51.092;6.828;2023-04-15T12:54:06;12.00;1.00
20839;DHT22;10580;51.092;6.828;2023-04-15T12:56:32;12.00;1.00
20839;DHT22;10580;51.092;6.828;2023-04-15T12:58:57;12.00;1.00
20839;DHT22;10580;51.092;6.828;2023-04-15T13:01:23;12.00;1.00
20839;DHT22;10580;51.092;6.828;2023-04-15T13:03:49;12.00;1.00
20839;DHT22;10580;51.092;6.828;2023-04-15T13:06:15;11.90;1.00
20839;DHT22;10580;51.092;6.828;2023-04-15T13:08:41;11.90;1.00
20839;DHT22;10580;51.092;6.828;2023-04-15T13:11:06;11.90;1.00
20839;DHT22;10580;51.092;6.828;2023-04-15T13:13:32;11.90;1.00
20839;DHT22;10580;51.092;6.828;2023-04-15T13:15:58;11.80;1.00
20839;DHT22;10580;51.092;6.828;2023-04-15T13:18:23;11.90;1.00
20839;DHT22;10580;51.092;6.828;2023-04-15T13:20:50;11.80;1.00
20839;DHT22;10580;51.092;6.828;2023-04-15T13:23:15;11.80;1.00
20839;DHT22;10580;51.092;6.828;2023-04-15T13:25:41;11.70;1.00
20839;DHT22;10580;51.092;6.828;2023-04-15T13:28:07;11.60;1.00
20839;DHT22;10580;51.092;6.828;2023-04-15T13:30:33;11.60;1.00
20839;DHT22;10580;51.092;6.828;2023-04-15T13:32:59;11.50;1.00
20839;DHT22;10580;51.092;6.828;2023-04-15T13:35:25;11.50;1.00
20839;DHT22;10580;51.092;6.828;2023-04-15T13:37:52;11.40;1.00
20839;DHT22;10580;51.092;6.828;2023-04-15T13:40:19;11.40;1.00
20839;DHT22;10580;51.092;6.828;2023-04-15T13:42:44;11.40;1.00
20839;DHT22;10580;51.092;6.828;2023-04-15T13:45:11;11.40;1.00
20839;DHT22;10580;51.092;6.828;2023-04-15T13:47:37;11.30;1.00
20839;DHT22;10580;51.092;6.828;2023-04-15T13:50:02;11.30;1.00
20839;DHT22;10580;51.092;6.828;2023-04-15T13:52:28;11.40;1.00
20839;DHT22;10580;51.092;6.828;2023-04-15T13:54:53;11.40;1.00
20839;DHT22;10580;51.092;6.828;2023-04-15T13:57:19;11.50;1.00
20839;DHT22;10580;51.092;6.828;2023-04-15T13:59:45;11.40;1.00
20839;DHT22;10580;51.092;6.828;2023-04-15T14:02:10;11.40;1.00
20839;DHT22;10580;51.092;6.828;2023-04-15T14:04:36;11.40;1.00
20839;DHT22;10580;51.092;6.828;2023-04-15T14:07:04;11.40;1.00
20839;DHT22;10580;51.092;6.828;2023-04-15T14:09:30;11.50;1.00
20839;DHT22;10580;51.092;6.828;2023-04-15T14:11:55;11.50;23.50
20839;DHT22;10580;51.092;6.828;2023-04-15T14:14:23;11.40;1.00
20839;DHT22;10580;51.092;6.828;2023-04-15T14:16:48;11.40;1.00
20839;DHT22;10580;51.092;6.828;2023-04-15T14:19:14;11.30;99.90
20839;DHT22;10580;51.092;6.828;2023-04-15T14:21:40;11.30;1.00
20839;DHT22;10580;51.092;6.828;2023-04-15T14:24:05;11.20;1.00
20839;DHT22;10580;51.092;6.828;2023-04-15T14:26:31;11.30;99.90
20839;DHT22;10580;51.092;6.828;2023-04-15T14:28:56;11.20;1.00
20839;DHT22;10580;51.092;6.828;2023-04-15T14:31:22;11.20;1.00
20839;DHT22;10580;51.092;6.828;2023-04-15T14:33:47;11.30;1.00
20839;DHT22;10580;51.092;6.828;2023-04-15T14:36:13;11.40;1.00
20839;DHT22;10580;51.092;6.828;2023-04-15T14:38:39;11.50;1.00
20839;DHT22;10580;51.092;6.828;2023-04-15T14:41:08;11.80;1.00
20839;DHT22;10580;51.092;6.828;2023-04-15T14:43:34;12.00;1.00
20839;DHT22;10580;51.092;6.828;2023-04-15T14:46:01;12.10;68.40
20839;DHT22;10580;51.092;6.828;2023-04-15T14:48:27;12.40;1.00
20839;DHT22;10580;51.092;6.828;2023-04-15T14:50:52;12.40;1.00
20839;DHT22;10580;51.092;6.828;2023-04-15T14:53:18;12.50;1.00
20839;DHT22;10580;51.092;6.828;2023-04-15T14:55:44;12.50;1.00
20839;DHT22;10580;51.092;6.828;2023-04-15T14:58:10;12.60;1.00
20839;DHT22;10580;51.092;6.828;2023-04-15T15:00:37;12.50;1.00
20839;DHT22;10580;51.092;6.828;2023-04-15T15:03:07;12.10;1.00
20839;DHT22;10580;51.092;6.828;2023-04-15T15:05:46;12.00;1.00
20839;DHT22;10580;51.092;6.828;2023-04-15T15:08:12;11.80;1.00
20839;DHT22;10580;51.092;6.828;2023-04-15T15:10:38;11.80;1.00
20839;DHT22;10580;51.092;6.828;2023-04-15T15:13:06;11.70;1.00
20839;DHT22;10580;51.092;6.828;2023-04-15T15:15:32;11.60;1.00
20839;DHT22;10580;51.092;6.828;2023-04-15T15:17:58;11.60;1.00
20839;DHT22;10580;51.092;6.828;2023-04-15T15:20:25;11.50;1.00
20839;DHT22;10580;51.092;6.828;2023-04-15T15:22:50;11.50;1.00
20839;DHT22;10580;51.092;6.828;2023-04-15T15:25:16;11.40;1.00
20839;DHT22;10580;51.092;6.828;2023-04-15T15:27:42;11.30;1.00
20839;DHT22;10580;51.092;6.828;2023-04-15T15:30:08;11.40;93.10
20839;DHT22;10580;51.092;6.828;2023-04-15T15:32:34;11.40;21.50
20839;DHT22;10580;51.092;6.828;2023-04-15T15:35:00;11.30;16.90
20839;DHT22;10580;51.092;6.828;2023-04-15T15:37:25;11.30;99.90
20839;DHT22;10580;51.092;6.828;2023-04-15T15:39:52;11.20;99.90
20839;DHT22;10580;51.092;6.828;2023-04-15T15:42:21;11.10;99.90
20839;DHT22;10580;51.092;6.828;2023-04-15T15:44:47;11.00;99.90
20839;DHT22;10580;51.092;6.828;2023-04-15T15:47:14;11.00;84.90
20839;DHT22;10580;51.092;6.828;2023-04-15T15:49:40;10.80;99.90
20839;DHT22;10580;51.092;6.828;2023-04-15T15:52:05;10.90;99.90
20839;DHT22;10580;51.092;6.828;2023-04-15T15:54:31;10.80;99.90
20839;DHT22;10580;51.092;6.828;2023-04-15T15:56:57;10.70;1.00
20839;DHT22;10580;51.092;6.828;2023-04-15T15:59:23;10.70;1.00
20839;DHT22;10580;51.092;6.828;2023-04-15T16:01:50;10.60;99.90
20839;DHT22;10580;51.092;6.828;2023-04-15T16:04:15;10.50;1.00
20839;DHT22;10580;51.092;6.828;2023-04-15T16:06:41;10.50;1.00
20839;DHT22;10580;51.092;6.828;2023-04-15T16:09:09;10.40;1.00
20839;DHT22;10580;51.092;6.828;2023-04-15T16:11:35;10.40;1.00
20839;DHT22;10580;51.092;6.828;2023-04-15T16:14:00;10.40;1.00
20839;DHT22;10580;51.092;6.828;2023-04-15T16:16:26;10.40;11.20
20839;DHT22;10580;51.092;6.828;2023-04-15T16:18:51;10.40;99.90
20839;DHT22;10580;51.092;6.828;2023-04-15T16:21:17;10.40;1.00
20839;DHT22;10580;51.092;6.828;2023-04-15T16:23:44;10.40;1.00
20839;DHT22;10580;51.092;6.828;2023-04-15T16:26:10;10.30;99.90
20839;DHT22;10580;51.092;6.828;2023-04-15T16:28:35;10.20;99.90
20839;DHT22;10580;51.092;6.828;2023-04-15T16:31:01;10.30;1.00
20839;DHT22;10580;51.092;6.828;2023-04-15T16:33:27;10.20;1.00
20839;DHT22;10580;51.092;6.828;2023-04-15T16:35:52;10.20;99.90
20839;DHT22;10580;51.092;6.828;2023-04-15T16:38:18;10.20;1.00
20839;DHT22;10580;51.092;6.828;2023-04-15T16:40:43;10.20;99.90
20839;DHT22;10580;51.092;6.828;2023-04-15T16:43:09;10.20;1.00
20839;DHT22;10580;51.092;6.828;2023-04-15T16:45:35;10.10;1.00
20839;DHT22;10580;51.092;6.828;2023-04-15T16:48:01;10.10;99.90
20839;DHT22;10580;51.092;6.828;2023-04-15T16:50:27;10.10;99.90
20839;DHT22;10580;51.092;6.828;2023-04-15T16:52:53;10.10;99.90
20839;DHT22;10580;51.092;6.828;2023-04-15T16:55:18;10.00;99.90
20839;DHT22;10580;51.092;6.828;2023-04-15T16:57:44;10.00;99.90
20839;DHT22;10580;51.092;6.828;2023-04-15T17:00:10;10.00;1.00
20839;DHT22;10580;51.092;6.828;2023-04-15T17:02:36;10.00;27.30
20839;DHT22;10580;51.092;6.828;2023-04-15T17:05:01;10.00;1.00
20839;DHT22;10580;51.092;6.828;2023-04-15T17:07:27;9.90;99.90
20839;DHT22;10580;51.092;6.828;2023-04-15T17:09:53;9.90;1.00
20839;DHT22;10580;51.092;6.828;2023-04-15T17:12:18;9.90;99.90
20839;DHT22;10580;51.092;6.828;2023-04-15T17:14:44;9.90;96.50